St Paul Downtown Holman Field
KSTP : rendu visible

Aérodrome :











RETROUVEZ-NOUS SUR...

 
LOGIN :

S'inscrire | Disclaimer

   EN    FR    IT 

 









Légende :    VFR   VFR Marginal   IFR   IFR Intensif   IFR Très Intensif
Visi : 
Plafond : 
>= 8 km
>= 3000ft
5 à 8 km
1000 à 3000 ft
1500m à 5 km
500 à 1000 ft
800 à 1500m
200 à 500 ft
< 800m
< 200 ft
Symboles :   Orages  Brouillard  Fortes neiges  Fortes précipitations  Vent > 20 kt






- Altitude de l'aérodrome : 705 ft
- Code IATA : STP


KSTP - St Paul Downtown Holman Field

DERNIER METAR :
  • 150653Z AUTO 34004KT 8SM OVC029 M01/M03 A3024 RMK AO2 SLP247 T10061033

METARs EXPIRÉS :
  • 150553Z AUTO 00000KT 10SM OVC031 M02/M04 A3022 RMK AO2 SLP240 T10171044 11011 21044 410061067 52012
  • 150453Z AUTO 00000KT 10SM BKN032 M03/M06 A3020 RMK AO2 SLP236 T10281061

Prévision TAF périmée.



MET'MAP, la Météo Aéronautique d'un coup d'oeil ! - Copyright ORBIFLY Décembre 2007 - Disclaimer

ORBIFLY MET'MAP TEAM :

Programmation & Développement : Alexandra Zaïnal
Conception & Développement : Baudouin d'Aumeries
Co-Programmation & Développement : Marc-Olivier Méhu
Soutien technique & logistique : Manuel Goepfert

Contact : metmap@orbifly.com




SOURCES & CREDITS :

   NOAA       Earth
Advisory